Time;durP1;ratioP1;P1;durP2;ratioP2;P2;SDS_P1;SDS_P2;PMS_P1;PMS_P2;Temp;Humidity;BMP_temperature;BMP_pressure;BME280_temperature;BME280_humidity;BME280_pressure;Samples;Min_cycle;Max_cycle;Signal;HPM_P1;HPM_P2
2021/11/21 00:01:36;;;;;;;19.48;5.10;;;;;;;5.14;91.65;99389.14;1677368;85;21093;-74
2021/11/21 00:04:03;;;;;;;21.00;5.53;;;;;;;5.15;92.78;99388.69;1680086;85;22164;-73
2021/11/21 00:06:31;;;;;;;17.95;4.78;;;;;;;5.15;91.22;99384.31;1679422;84;21563;-74
2021/11/21 00:08:58;;;;;;;17.20;5.10;;;;;;;5.18;93.03;99380.34;1680890;84;21486;-73
2021/11/21 00:11:25;;;;;;;25.82;6.33;;;;;;;5.19;92.70;99388.56;1680819;85;21030;-73
2021/11/21 00:13:53;;;;;;;13.83;4.50;;;;;;;5.21;92.26;99391.14;1680870;84;21149;-74
2021/11/21 00:16:21;;;;;;;17.12;4.75;;;;;;;5.22;95.17;99391.11;1680692;85;21151;-73
2021/11/21 00:18:48;;;;;;;18.27;5.08;;;;;;;5.23;92.12;99396.73;1680673;85;21073;-73
2021/11/21 00:21:16;;;;;;;16.12;4.92;;;;;;;5.25;92.75;99396.24;1717806;83;21073;-74
2021/11/21 00:23:43;;;;;;;19.57;6.15;;;;;;;5.23;93.91;99386.28;1701862;83;21053;-73
2021/11/21 00:26:10;;;;;;;19.52;4.65;;;;;;;5.26;92.68;99398.40;1717702;83;21125;-74
2021/11/21 00:28:37;;;;;;;19.92;5.10;;;;;;;5.25;94.66;99393.63;1717575;82;21186;-74
2021/11/21 00:31:05;;;;;;;28.67;6.72;;;;;;;5.26;93.35;99394.02;1717646;83;21085;-73
2021/11/21 00:33:32;;;;;;;15.45;4.53;;;;;;;5.28;93.02;99399.67;1717702;83;21072;-74
2021/11/21 00:36:00;;;;;;;22.27;5.78;;;;;;;5.29;94.64;99397.45;1717817;83;22335;-74
2021/11/21 00:38:27;;;;;;;18.82;5.10;;;;;;;5.28;92.55;99389.23;1717551;83;21038;-74
2021/11/21 00:40:54;;;;;;;14.83;4.45;;;;;;;5.32;95.20;99386.49;1717728;83;21153;-73
2021/11/21 00:43:22;;;;;;;17.12;4.70;;;;;;;5.33;94.36;99379.05;1717440;83;21642;-75
2021/11/21 00:45:49;;;;;;;21.85;5.17;;;;;;;5.35;93.71;99375.95;1707794;83;21018;-75
2021/11/21 00:48:20;;;;;;;19.65;4.78;;;;;;;5.35;96.98;99376.41;1706849;84;21544;-76
2021/11/21 00:50:45;;;;;;;23.47;5.50;;;;;;;5.33;94.21;99372.52;1706366;83;21597;-76
2021/11/21 00:53:13;;;;;;;18.35;5.72;;;;;;;5.38;95.51;99389.37;1706608;84;21200;-76
2021/11/21 00:55:49;;;;;;;22.20;5.97;;;;;;;5.40;95.51;99377.13;1706719;84;21097;-76
2021/11/21 00:58:11;;;;;;;19.85;5.05;;;;;;;5.39;94.75;99375.43;1705158;83;21080;-77
2021/11/21 01:00:42;;;;;;;21.82;5.62;;;;;;;5.39;97.40;99370.20;1701105;83;22174;-74
2021/11/21 01:03:12;;;;;;;16.60;5.03;;;;;;;5.40;96.35;99371.45;1683505;84;21117;-73
2021/11/21 01:05:44;;;;;;;18.00;5.47;;;;;;;5.42;96.26;99368.80;1684260;85;21119;-76
2021/11/21 01:08:11;;;;;;;11.90;5.05;;;;;;;5.38;96.72;99360.64;1683969;84;21108;-75
2021/11/21 01:10:39;;;;;;;19.90;5.35;;;;;;;5.38;95.98;99360.64;1707716;83;21575;-74
2021/11/21 01:13:06;;;;;;;17.92;5.15;;;;;;;5.43;99.09;99361.39;1712609;83;21018;-75
2021/11/21 01:15:33;;;;;;;16.23;5.60;;;;;;;5.42;98.98;99354.45;1712773;83;21645;-74
2021/11/21 01:18:01;;;;;;;15.80;5.50;;;;;;;5.44;97.48;99350.89;1712442;83;21188;-73
2021/11/21 01:20:30;;;;;;;17.98;5.90;;;;;;;5.48;100.00;99351.67;1712485;82;21058;-74
2021/11/21 01:22:59;;;;;;;17.82;5.58;;;;;;;5.48;97.90;99341.22;1712657;82;21062;-75
2021/11/21 01:25:26;;;;;;;19.92;6.20;;;;;;;5.48;97.74;99336.00;1712740;82;21097;-75
2021/11/21 01:27:53;;;;;;;21.02;5.58;;;;;;;5.51;99.11;99336.36;1712253;82;21030;-74
2021/11/21 01:30:26;;;;;;;19.57;6.00;;;;;;;5.50;97.68;99325.06;1712729;83;21516;-75
2021/11/21 01:32:54;;;;;;;15.10;4.72;;;;;;;5.52;99.36;99328.91;1712222;82;21065;-75
2021/11/21 01:35:21;;;;;;;22.05;5.75;;;;;;;5.52;99.05;99333.71;1711914;83;21057;-74
2021/11/21 01:37:48;;;;;;;11.55;5.53;;;;;;;5.54;98.45;99326.66;1706533;84;21710;-75
2021/11/21 01:40:17;;;;;;;17.98;5.70;;;;;;;5.56;100.00;99311.80;1706738;84;21072;-76
2021/11/21 01:42:44;;;;;;;18.20;5.58;;;;;;;5.57;98.96;99303.08;1706449;84;21137;-74
2021/11/21 01:45:12;;;;;;;20.05;5.80;;;;;;;5.61;100.00;99300.80;1702655;83;21093;-75
2021/11/21 01:47:42;;;;;;;19.17;6.28;;;;;;;5.61;100.00;99298.18;1696276;84;21041;-75
2021/11/21 01:50:13;;;;;;;12.43;5.30;;;;;;;5.64;100.00;99293.31;1696689;84;21593;-74
2021/11/21 01:52:41;;;;;;;22.22;6.67;;;;;;;5.67;100.00;99287.52;1696292;84;21068;-75
2021/11/21 01:55:08;;;;;;;16.70;5.78;;;;;;;5.70;100.00;99280.50;1696563;84;21136;-74
2021/11/21 01:57:36;;;;;;;16.67;6.42;;;;;;;5.73;100.00;99280.39;1696112;84;21069;-74
2021/11/21 02:00:06;;;;;;;21.40;7.08;;;;;;;5.72;100.00;99265.18;1658310;84;21069;-74
2021/11/21 02:02:40;;;;;;;17.57;6.67;;;;;;;5.68;100.00;99254.41;1696610;84;21072;-74
2021/11/21 02:05:07;;;;;;;20.17;6.90;;;;;;;5.75;100.00;99269.02;1696291;84;21073;-75
2021/11/21 02:07:34;;;;;;;14.30;6.55;;;;;;;5.75;100.00;99271.64;1696349;84;21523;-74
2021/11/21 02:10:01;;;;;;;13.18;6.30;;;;;;;5.79;100.00;99276.30;1696248;84;21088;-75
2021/11/21 02:12:28;;;;;;;20.48;7.15;;;;;;;5.83;100.00;99271.39;1695944;84;21084;-74
2021/11/21 02:14:55;;;;;;;18.02;7.37;;;;;;;5.84;100.00;99270.47;1696076;84;21048;-74
2021/11/21 02:17:27;;;;;;;15.25;7.12;;;;;;;5.92;100.00;99271.09;1696247;84;21037;-78
2021/11/21 02:19:54;;;;;;;21.40;7.05;;;;;;;5.95;100.00;99270.17;1696732;84;21178;-77
2021/11/21 02:22:21;;;;;;;16.80;7.03;;;;;;;5.98;100.00;99267.02;1696253;84;21049;-77
2021/11/21 02:24:48;;;;;;;19.40;7.00;;;;;;;6.03;100.00;99265.11;1696575;84;21086;-75
2021/11/21 02:27:17;;;;;;;21.00;7.37;;;;;;;6.05;100.00;99265.03;1696586;83;21104;-78
2021/11/21 02:29:45;;;;;;;17.37;6.50;;;;;;;6.05;100.00;99264.61;1696218;84;21041;-71
2021/11/21 02:32:12;;;;;;;18.35;7.67;;;;;;;6.06;100.00;99266.31;1695936;84;21125;-71
2021/11/21 02:34:39;;;;;;;17.37;7.17;;;;;;;6.06;100.00;99268.08;1696126;83;21132;-71
2021/11/21 02:37:09;;;;;;;19.60;7.95;;;;;;;6.09;100.00;99263.58;1715607;83;21128;-71
2021/11/21 02:39:38;;;;;;;17.42;8.00;;;;;;;6.08;100.00;99247.51;1719718;83;21139;-71
2021/11/21 02:42:05;;;;;;;19.48;8.95;;;;;;;6.07;100.00;99249.73;1719514;83;21088;-71
2021/11/21 02:44:32;;;;;;;18.10;7.78;;;;;;;6.09;100.00;99240.52;1719413;83;22164;-72
2021/11/21 02:46:59;;;;;;;18.25;8.63;;;;;;;6.08;100.00;99229.21;1719317;83;21104;-72
2021/11/21 02:49:26;;;;;;;17.77;7.83;;;;;;;6.08;100.00;99234.91;1719401;83;21095;-72
2021/11/21 02:51:53;;;;;;;20.75;8.90;;;;;;;6.08;100.00;99227.06;1719569;83;21096;-71
2021/11/21 02:54:20;;;;;;;21.17;9.38;;;;;;;6.09;100.00;99226.98;1719777;83;21555;-72
2021/11/21 02:56:47;;;;;;;17.00;8.65;;;;;;;6.13;100.00;99215.14;1719647;83;21140;-74
2021/11/21 02:59:17;;;;;;;17.95;9.10;;;;;;;6.11;100.00;99216.48;1719861;83;21536;-72
2021/11/21 03:01:45;;;;;;;17.52;7.75;;;;;;;6.14;100.00;99207.69;1687896;83;21615;-73
2021/11/21 03:04:12;;;;;;;19.90;9.23;;;;;;;6.16;100.00;99215.03;1719719;83;21081;-73
2021/11/21 03:06:41;;;;;;;22.40;9.08;;;;;;;6.14;100.00;99216.84;1719574;83;21127;-72
2021/11/21 03:09:08;;;;;;;15.98;8.50;;;;;;;6.16;100.00;99224.17;1719838;83;21100;-72
2021/11/21 03:11:35;;;;;;;19.52;9.30;;;;;;;6.13;100.00;99215.98;1719838;83;22129;-72
2021/11/21 03:14:03;;;;;;;19.37;8.70;;;;;;;6.13;100.00;99209.91;1719736;83;21089;-72
2021/11/21 03:16:31;;;;;;;20.08;9.83;;;;;;;6.14;100.00;99212.91;1719920;83;21398;-73
2021/11/21 03:18:58;;;;;;;20.77;8.85;;;;;;;6.14;100.00;99210.30;1719735;83;21582;-72
2021/11/21 03:21:26;;;;;;;17.67;9.08;;;;;;;6.16;100.00;99208.03;1719961;83;21099;-72
2021/11/21 03:23:53;;;;;;;21.33;9.40;;;;;;;6.16;100.00;99204.57;1719548;83;21100;-71
2021/11/21 03:26:21;;;;;;;19.17;9.85;;;;;;;6.15;100.00;99206.80;1719998;83;21076;-72
2021/11/21 03:28:49;;;;;;;20.00;9.13;;;;;;;6.19;100.00;99204.45;1719779;82;21104;-72
2021/11/21 03:31:17;;;;;;;20.10;9.63;;;;;;;6.19;100.00;99208.37;1720311;83;21086;-73
2021/11/21 03:33:44;;;;;;;17.27;9.10;;;;;;;6.20;100.00;99204.88;1719787;83;21130;-72
2021/11/21 03:36:12;;;;;;;19.50;10.05;;;;;;;6.23;100.00;99194.30;1722269;83;21096;-72
2021/11/21 03:38:39;;;;;;;17.73;9.83;;;;;;;6.24;100.00;99203.88;1725268;83;21147;-72
2021/11/21 03:41:06;;;;;;;17.80;8.78;;;;;;;6.30;100.00;99201.03;1725693;83;21056;-73
2021/11/21 03:43:33;;;;;;;17.57;9.40;;;;;;;6.31;100.00;99204.06;1724988;83;21100;-72
2021/11/21 03:46:00;;;;;;;14.03;8.00;;;;;;;6.34;100.00;99204.41;1718047;82;21105;-72
2021/11/21 03:48:28;;;;;;;17.85;9.85;;;;;;;6.36;100.00;99199.98;1712218;83;21084;-72
2021/11/21 03:50:55;;;;;;;18.50;10.18;;;;;;;6.35;100.00;99208.28;1712312;83;21067;-70
2021/11/21 03:53:23;;;;;;;18.48;9.63;;;;;;;6.36;100.00;99206.05;1711565;83;21069;-74
2021/11/21 03:55:50;;;;;;;18.10;9.25;;;;;;;6.38;100.00;99200.32;1712524;83;21109;-78
2021/11/21 03:58:19;;;;;;;20.08;10.32;;;;;;;6.41;100.00;99201.52;1712812;83;21181;-74
2021/11/21 04:00:46;;;;;;;14.55;8.83;;;;;;;6.47;100.00;99200.00;1712108;82;21054;-73
2021/11/21 04:03:14;;;;;;;18.02;9.98;;;;;;;6.50;100.00;99204.27;1712512;83;21054;-72
2021/11/21 04:05:42;;;;;;;13.72;8.28;;;;;;;6.57;100.00;99206.22;1712385;83;21704;-73
2021/11/21 04:08:10;;;;;;;16.70;9.80;;;;;;;6.62;100.00;99206.44;1712457;82;21097;-74
2021/11/21 04:10:38;;;;;;;16.20;9.38;;;;;;;6.66;100.00;99207.20;1712449;82;21380;-75
2021/11/21 04:13:05;;;;;;;16.55;8.78;;;;;;;6.74;100.00;99205.17;1712617;82;21058;-73
2021/11/21 04:15:32;;;;;;;14.98;9.48;;;;;;;6.77;100.00;99196.36;1712522;83;21101;-74
2021/11/21 04:17:59;;;;;;;15.43;8.35;;;;;;;6.82;100.00;99193.95;1712632;83;21676;-74
2021/11/21 04:20:28;;;;;;;21.62;10.05;;;;;;;6.88;100.00;99196.36;1712493;83;21026;-75
2021/11/21 04:22:56;;;;;;;18.85;9.38;;;;;;;6.93;100.00;99197.03;1712546;83;21128;-74
2021/11/21 04:25:24;;;;;;;15.03;8.08;;;;;;;6.98;100.00;99190.78;1712508;83;21577;-74
2021/11/21 04:27:52;;;;;;;16.50;9.40;;;;;;;7.03;100.00;99198.00;1712522;82;21006;-73
2021/11/21 04:30:19;;;;;;;15.38;8.05;;;;;;;7.06;100.00;99186.09;1712738;83;21165;-72
2021/11/21 04:32:47;;;;;;;19.57;9.28;;;;;;;7.10;100.00;99196.86;1712509;83;21623;-72
2021/11/21 04:35:18;;;;;;;12.40;8.55;;;;;;;7.08;100.00;99198.67;1712612;83;21188;-72
2021/11/21 04:37:47;;;;;;;15.10;8.30;;;;;;;7.06;100.00;99191.33;1712619;83;21069;-73
2021/11/21 04:40:14;;;;;;;14.78;8.73;;;;;;;7.05;100.00;99191.80;1712607;83;21097;-72
2021/11/21 04:42:42;;;;;;;15.43;8.63;;;;;;;7.02;100.00;99195.84;1712256;83;21089;-74
2021/11/21 04:45:10;;;;;;;14.25;8.85;;;;;;;7.00;100.00;99200.74;1712638;82;21520;-77
2021/11/21 04:47:37;;;;;;;15.20;9.55;;;;;;;6.99;100.00;99199.02;1712218;82;21920;-74
2021/11/21 04:50:06;;;;;;;11.90;7.58;;;;;;;6.97;100.00;99203.45;1710544;82;21089;-72
2021/11/21 04:52:35;;;;;;;15.43;8.10;;;;;;;6.98;100.00;99202.56;1710836;83;21557;-75
2021/11/21 04:55:02;;;;;;;17.85;9.08;;;;;;;6.96;100.00;99197.84;1711816;83;21038;-74
2021/11/21 04:57:31;;;;;;;14.33;8.35;;;;;;;6.99;100.00;99202.94;1710157;82;21121;-74
2021/11/21 04:59:58;;;;;;;15.98;9.03;;;;;;;6.97;100.00;99200.41;1710487;83;21981;-73
2021/11/21 05:02:25;;;;;;;14.70;8.60;;;;;;;6.94;100.00;99203.12;1711073;83;21069;-75
2021/11/21 05:04:52;;;;;;;10.63;7.90;;;;;;;6.95;100.00;99200.91;1711000;83;22135;-77
2021/11/21 05:07:19;;;;;;;14.40;9.03;;;;;;;6.94;100.00;99200.50;1710965;83;21065;-75
2021/11/21 05:09:47;;;;;;;18.15;8.30;;;;;;;6.93;100.00;99199.65;1711093;82;21038;-75
2021/11/21 05:12:14;;;;;;;15.23;9.10;;;;;;;6.94;100.00;99209.20;1710414;83;22229;-74
2021/11/21 05:14:42;;;;;;;15.65;9.03;;;;;;;6.92;100.00;99207.13;1709906;82;21073;-72
2021/11/21 05:17:09;;;;;;;14.83;8.63;;;;;;;6.91;100.00;99211.94;1709700;82;21065;-74
2021/11/21 05:19:36;;;;;;;12.85;9.18;;;;;;;6.88;100.00;99209.44;1709914;83;21038;-74
2021/11/21 05:22:03;;;;;;;15.35;8.85;;;;;;;6.85;100.00;99213.46;1710041;83;21074;-73
2021/11/21 05:24:30;;;;;;;15.08;9.38;;;;;;;6.83;100.00;99208.77;1709974;83;22074;-74
2021/11/21 05:26:59;;;;;;;13.65;9.45;;;;;;;6.77;100.00;99203.74;1710344;82;21089;-75
2021/11/21 05:29:26;;;;;;;12.95;8.25;;;;;;;6.72;100.00;99203.91;1710216;83;21133;-75
2021/11/21 05:31:53;;;;;;;12.78;8.25;;;;;;;6.72;100.00;99213.06;1710599;83;21069;-76
2021/11/21 05:34:20;;;;;;;14.73;8.55;;;;;;;6.70;100.00;99199.64;1710898;83;21027;-75
2021/11/21 05:36:47;;;;;;;16.60;9.28;;;;;;;6.68;100.00;99205.38;1709249;83;21473;-73
2021/11/21 05:39:16;;;;;;;12.40;8.43;;;;;;;6.65;100.00;99198.50;1712397;83;21053;-77
2021/11/21 05:41:44;;;;;;;16.35;9.30;;;;;;;6.65;100.00;99204.20;1712489;82;21053;-72
2021/11/21 05:44:11;;;;;;;16.42;9.58;;;;;;;6.66;100.00;99200.66;1712674;83;21073;-78
2021/11/21 05:46:38;;;;;;;15.70;9.48;;;;;;;6.64;100.00;99205.94;1711863;82;21326;-74
2021/11/21 05:49:05;;;;;;;14.20;8.48;;;;;;;6.67;100.00;99207.58;1712172;83;21929;-75
2021/11/21 05:51:32;;;;;;;18.65;10.13;;;;;;;6.67;100.00;99208.46;1710543;83;21098;-74
2021/11/21 05:53:59;;;;;;;14.63;8.95;;;;;;;6.65;100.00;99199.81;1712207;82;21066;-74
2021/11/21 05:56:26;;;;;;;13.58;8.28;;;;;;;6.70;100.00;99203.56;1709918;82;21541;-74
2021/11/21 05:58:53;;;;;;;17.57;10.43;;;;;;;6.69;100.00;99200.53;1711161;83;21602;-73
2021/11/21 06:01:21;;;;;;;15.43;9.53;;;;;;;6.73;100.00;99200.83;1711440;83;21108;-75
2021/11/21 06:03:54;;;;;;;16.70;10.53;;;;;;;6.79;100.00;99207.16;1711654;83;21015;-74
2021/11/21 06:06:19;;;;;;;16.52;9.88;;;;;;;6.88;100.00;99190.27;1709771;82;21081;-77
2021/11/21 06:08:50;;;;;;;16.42;9.68;;;;;;;7.01;100.00;99188.04;1711111;83;21042;-75
2021/11/21 06:11:17;;;;;;;16.02;10.53;;;;;;;7.08;100.00;99189.51;1712446;82;22141;-75
2021/11/21 06:13:45;;;;;;;17.87;10.70;;;;;;;7.14;100.00;99187.52;1712607;82;21141;-75
2021/11/21 06:16:12;;;;;;;15.90;9.68;;;;;;;7.22;100.00;99184.59;1712509;83;21574;-76
2021/11/21 06:18:39;;;;;;;16.05;9.90;;;;;;;7.27;100.00;99180.06;1712332;82;21045;-76
2021/11/21 06:21:06;;;;;;;15.20;9.85;;;;;;;7.33;100.00;99181.11;1711979;83;21047;-77
2021/11/21 06:23:34;;;;;;;17.82;10.40;;;;;;;7.35;100.00;99182.38;1712379;82;21580;-76
2021/11/21 06:26:03;;;;;;;14.00;9.43;;;;;;;7.38;100.00;99178.77;1712130;82;21135;-75
2021/11/21 06:28:30;;;;;;;16.62;10.10;;;;;;;7.41;100.00;99191.73;1711913;83;21588;-75
2021/11/21 06:30:57;;;;;;;16.60;9.58;;;;;;;7.50;100.00;99187.45;1712436;83;21053;-75
2021/11/21 06:33:24;;;;;;;15.65;9.60;;;;;;;7.67;100.00;99192.89;1712505;83;21021;-76
2021/11/21 06:35:52;;;;;;;16.27;9.80;;;;;;;7.73;100.00;99182.17;1710673;83;21050;-76
2021/11/21 06:38:20;;;;;;;15.25;9.45;;;;;;;7.77;100.00;99186.81;1706470;84;21896;-76
2021/11/21 06:40:47;;;;;;;14.80;9.40;;;;;;;7.81;100.00;99187.09;1706331;84;21069;-74
2021/11/21 06:43:15;;;;;;;15.80;9.60;;;;;;;7.83;100.00;99194.90;1706729;84;21096;-76
2021/11/21 06:45:42;;;;;;;15.20;9.15;;;;;;;7.84;100.00;99193.97;1709479;82;21042;-74
2021/11/21 06:48:11;;;;;;;16.42;10.00;;;;;;;7.91;100.00;99183.19;1711935;83;21133;-75
2021/11/21 06:50:38;;;;;;;14.33;9.25;;;;;;;7.94;100.00;99176.50;1711330;83;21781;-75
2021/11/21 06:53:05;;;;;;;14.73;10.15;;;;;;;8.01;100.00;99182.34;1711542;83;21087;-75
2021/11/21 06:55:33;;;;;;;13.85;9.70;;;;;;;8.05;100.00;99187.86;1677698;85;21025;-76
2021/11/21 06:58:00;;;;;;;13.70;9.83;;;;;;;8.11;100.00;99187.58;1711139;83;21617;-75
2021/11/21 07:00:27;;;;;;;15.55;9.68;;;;;;;8.16;100.00;99188.23;1709996;83;21049;-76
2021/11/21 07:02:55;;;;;;;16.27;10.10;;;;;;;8.16;100.00;99186.08;1709357;83;22130;-76
2021/11/21 07:05:22;;;;;;;14.68;9.78;;;;;;;8.17;100.00;99182.56;1674776;84;21060;-76
2021/11/21 07:07:49;;;;;;;15.38;9.50;;;;;;;8.17;100.00;99186.03;1711411;83;21065;-75
2021/11/21 07:10:16;;;;;;;14.93;9.55;;;;;;;8.21;100.00;99180.17;1710505;82;21651;-75
2021/11/21 07:12:44;;;;;;;15.58;9.45;;;;;;;8.25;100.00;99182.22;1711433;83;21053;-75
2021/11/21 07:15:16;;;;;;;20.27;10.32;;;;;;;8.29;100.00;99183.80;1712164;82;21509;-75
2021/11/21 07:17:44;;;;;;;16.00;10.28;;;;;;;8.32;100.00;99181.04;1711040;83;21069;-76
2021/11/21 07:20:15;;;;;;;15.63;10.32;;;;;;;8.37;100.00;99185.62;1711214;83;20990;-75
2021/11/21 07:22:48;;;;;;;16.00;10.88;;;;;;;8.38;100.00;99187.34;1712253;83;21049;-75
2021/11/21 07:25:17;;;;;;;19.37;10.60;;;;;;;8.40;100.00;99185.55;1712807;83;21065;-75
2021/11/21 07:27:44;;;;;;;17.45;10.98;;;;;;;8.44;100.00;99177.91;1710306;82;21111;-75
2021/11/21 07:30:14;;;;;;;16.67;10.68;;;;;;;8.47;100.00;99177.80;1710961;82;21286;-76
2021/11/21 07:32:42;;;;;;;13.77;10.10;;;;;;;8.52;100.00;99183.69;1709991;83;22338;-76
2021/11/21 07:35:09;;;;;;;16.55;10.82;;;;;;;8.57;100.00;99183.48;1711510;82;21037;-75
2021/11/21 07:37:36;;;;;;;18.62;10.30;;;;;;;8.57;100.00;99173.83;1710712;82;21061;-76
2021/11/21 07:40:04;;;;;;;16.73;10.23;;;;;;;8.61;100.00;99171.47;1711062;83;21111;-76
2021/11/21 07:42:32;;;;;;;18.17;11.20;;;;;;;8.65;100.00;99175.27;1711179;83;21570;-75
2021/11/21 07:44:59;;;;;;;14.87;10.28;;;;;;;8.68;100.00;99169.90;1712451;82;21092;-76
2021/11/21 07:47:26;;;;;;;16.80;10.60;;;;;;;8.74;100.00;99159.98;1712034;82;21136;-76
2021/11/21 07:49:55;;;;;;;15.38;10.10;;;;;;;8.83;100.00;99167.88;1712108;83;21074;-76
2021/11/21 07:52:22;;;;;;;18.25;10.80;;;;;;;8.93;100.00;99163.93;1709111;82;21137;-75
2021/11/21 07:54:50;;;;;;;20.05;10.85;;;;;;;8.98;100.00;99169.81;1710875;83;21049;-76
2021/11/21 07:57:17;;;;;;;16.17;10.55;;;;;;;9.01;100.00;99166.20;1712580;83;21042;-76
2021/11/21 07:59:44;;;;;;;16.42;10.23;;;;;;;9.00;100.00;99156.16;1712534;83;21580;-75
2021/11/21 08:02:11;;;;;;;16.05;9.90;;;;;;;9.05;100.00;99173.48;1711645;83;21084;-75
2021/11/21 08:04:39;;;;;;;15.98;10.28;;;;;;;9.06;100.00;99172.55;1712265;83;21978;-75
2021/11/21 08:07:08;;;;;;;17.07;10.15;;;;;;;9.03;100.00;99170.45;1712262;82;21049;-75
2021/11/21 08:09:35;;;;;;;17.27;10.75;;;;;;;9.04;100.00;99176.55;1710228;83;21112;-75
2021/11/21 08:12:03;;;;;;;15.68;9.78;;;;;;;9.02;100.00;99172.70;1711771;82;21058;-76
2021/11/21 08:14:32;;;;;;;16.15;10.15;;;;;;;9.07;100.00;99167.23;1711245;82;21116;-75
2021/11/21 08:17:00;;;;;;;15.68;10.00;;;;;;;9.08;100.00;99170.70;1711212;83;21195;-77
2021/11/21 08:19:27;;;;;;;18.25;10.03;;;;;;;9.11;100.00;99169.23;1711604;83;21525;-75
2021/11/21 08:21:56;;;;;;;14.55;10.05;;;;;;;9.15;100.00;99180.00;1710552;82;21536;-75
2021/11/21 08:24:23;;;;;;;18.05;10.72;;;;;;;9.16;100.00;99167.27;1711376;83;21132;-75
2021/11/21 08:26:49;;;;;;;22.07;10.88;;;;;;;9.13;100.00;99176.59;1676550;85;21563;-75
2021/11/21 08:29:16;;;;;;;16.48;10.95;;;;;;;9.14;100.00;99178.31;1711935;83;21111;-75
2021/11/21 08:31:43;;;;;;;18.15;11.65;;;;;;;9.18;100.00;99168.06;1711491;82;21580;-76
2021/11/21 08:34:10;;;;;;;17.95;10.75;;;;;;;9.17;100.00;99171.59;1711170;83;21068;-75
2021/11/21 08:36:37;;;;;;;17.52;10.45;;;;;;;9.19;100.00;99171.06;1708767;82;21093;-75
2021/11/21 08:39:04;;;;;;;18.20;10.95;;;;;;;9.22;100.00;99163.03;1711144;83;21721;-75
2021/11/21 08:41:31;;;;;;;17.07;11.00;;;;;;;9.24;100.00;99158.56;1709233;83;21190;-76
2021/11/21 08:43:57;;;;;;;18.65;11.28;;;;;;;9.28;100.00;99167.16;1712068;83;21057;-75
2021/11/21 08:46:26;;;;;;;20.37;10.98;;;;;;;9.30;100.00;99170.58;1712161;83;21278;-76
2021/11/21 08:48:54;;;;;;;18.10;10.50;;;;;;;9.29;99.19;99165.75;1719793;83;21076;-77
2021/11/21 08:51:21;;;;;;;21.17;11.45;;;;;;;9.33;100.00;99159.44;1719341;83;21062;-80
2021/11/21 08:53:48;;;;;;;24.98;12.35;;;;;;;9.36;99.33;99164.56;1718456;83;21153;-80
2021/11/21 08:56:16;;;;;;;18.40;11.65;;;;;;;9.37;98.74;99158.84;1718789;83;21311;-79
2021/11/21 08:58:43;;;;;;;18.48;11.25;;;;;;;9.41;98.01;99151.21;1720092;83;21018;-79
2021/11/21 09:01:10;;;;;;;17.73;10.68;;;;;;;9.46;98.05;99151.84;1720227;83;21607;-79
2021/11/21 09:03:38;;;;;;;18.62;12.18;;;;;;;9.47;96.04;99150.05;1705343;83;22347;-78
2021/11/21 09:06:05;;;;;;;20.88;11.50;;;;;;;9.51;96.57;99154.24;1718356;83;21062;-79
2021/11/21 09:08:31;;;;;;;18.90;10.43;;;;;;;9.55;97.16;99151.86;1717469;83;21077;-79
2021/11/21 09:10:58;;;;;;;17.90;10.45;;;;;;;9.60;96.37;99151.17;1715196;83;21101;-80
2021/11/21 09:13:27;;;;;;;18.20;9.85;;;;;;;9.64;95.95;99151.41;1713801;83;21065;-78
2021/11/21 09:15:55;;;;;;;18.10;9.78;;;;;;;9.69;95.40;99145.46;1713942;83;21104;-79
2021/11/21 09:18:24;;;;;;;16.60;10.10;;;;;;;9.72;94.87;99151.88;1714224;83;21626;-79
2021/11/21 09:20:55;;;;;;;17.35;9.38;;;;;;;9.75;94.68;99147.77;1714096;83;21334;-79
2021/11/21 09:23:23;;;;;;;17.05;10.38;;;;;;;9.75;92.80;99132.46;1714292;83;21097;-79
2021/11/21 09:25:52;;;;;;;20.27;10.30;;;;;;;9.74;93.53;99142.13;1714543;83;21045;-79
2021/11/21 09:28:24;;;;;;;17.98;10.08;;;;;;;9.74;91.98;99147.39;1714624;82;21112;-79
2021/11/21 09:30:54;;;;;;;17.50;9.80;;;;;;;9.76;92.12;99139.44;1715166;83;21096;-79
2021/11/21 09:33:23;;;;;;;15.10;9.87;;;;;;;9.82;91.82;99146.56;1714647;83;21026;-79
2021/11/21 09:35:51;;;;;;;16.32;9.63;;;;;;;9.83;91.41;99137.73;1714254;83;21136;-79
2021/11/21 09:38:19;;;;;;;15.45;9.13;;;;;;;9.85;91.94;99139.83;1714990;83;21065;-79
2021/11/21 09:40:48;;;;;;;16.52;9.38;;;;;;;9.90;91.72;99144.02;1714843;83;21108;-79
2021/11/21 09:43:15;;;;;;;15.43;9.90;;;;;;;9.90;91.35;99146.64;1714820;83;21719;-80
2021/11/21 09:45:41;;;;;;;18.32;9.90;;;;;;;9.88;91.75;99142.77;1714737;83;21611;-79
2021/11/21 09:48:09;;;;;;;13.60;9.35;;;;;;;9.82;92.26;99145.25;1710115;83;21093;-79
2021/11/21 09:50:40;;;;;;;14.28;9.33;;;;;;;9.77;92.23;99144.60;1706816;84;21120;-79
2021/11/21 09:53:08;;;;;;;14.43;10.15;;;;;;;9.77;93.52;99147.23;1707575;84;21104;-79
2021/11/21 09:55:36;;;;;;;15.15;9.73;;;;;;;9.76;94.05;99142.91;1707146;84;21133;-77
2021/11/21 09:58:05;;;;;;;16.90;9.18;;;;;;;9.71;92.87;99128.27;1707064;84;21037;-79
2021/11/21 10:00:33;;;;;;;16.00;9.70;;;;;;;9.76;92.90;99140.28;1707048;84;21069;-79
2021/11/21 10:03:06;;;;;;;18.00;10.60;;;;;;;9.75;94.21;99135.94;1707010;84;21073;-79
2021/11/21 10:05:36;;;;;;;17.45;9.85;;;;;;;9.75;92.18;99133.78;1706993;84;21567;-79
2021/11/21 10:08:13;;;;;;;15.95;10.25;;;;;;;9.75;93.28;99130.67;1706982;83;21046;-78
2021/11/21 10:10:49;;;;;;;21.90;9.90;;;;;;;9.75;92.50;99130.67;1698957;83;21544;-80
2021/11/21 10:13:36;;;;;;;16.48;9.93;;;;;;;9.78;92.97;99123.97;1710770;82;21089;-79
2021/11/21 10:16:34;;;;;;;19.57;9.50;;;;;;;9.85;92.58;99121.89;1706355;83;21593;-79
2021/11/21 10:19:06;;;;;;;14.73;9.53;;;;;;;9.84;92.62;99119.70;1683905;85;21375;-78
2021/11/21 10:21:39;;;;;;;16.70;9.15;;;;;;;9.82;94.82;99118.95;1697897;82;21161;-80
2021/11/21 10:24:30;;;;;;;16.40;9.95;;;;;;;9.84;94.02;99123.64;1711817;83;21597;-79
2021/11/21 10:27:11;;;;;;;18.02;10.43;;;;;;;9.90;91.95;99119.03;1712744;82;21088;-78
2021/11/21 10:29:46;;;;;;;19.15;9.90;;;;;;;9.98;91.42;99120.79;1706630;82;21073;-78
2021/11/21 10:32:34;;;;;;;17.25;10.13;;;;;;;10.02;90.73;99122.34;1711715;82;21073;-79
2021/11/21 10:35:07;;;;;;;14.85;9.55;;;;;;;10.03;90.60;99120.09;1699780;82;21116;-80
2021/11/21 10:37:37;;;;;;;15.90;10.08;;;;;;;10.08;92.52;99120.73;1701579;83;21050;-79
2021/11/21 10:40:16;;;;;;;11.28;7.17;;;;;;;10.08;91.79;99114.99;1712203;82;21042;-80
2021/11/21 10:42:46;;;;;;;15.95;9.15;;;;;;;10.06;93.47;99112.06;1711046;82;21090;-79
2021/11/21 10:45:14;;;;;;;17.45;10.53;;;;;;;10.07;91.16;99109.80;1712419;82;21120;-79
2021/11/21 10:47:56;;;;;;;15.05;9.83;;;;;;;10.10;90.87;99104.41;1712796;82;22007;-79
2021/11/21 10:50:37;;;;;;;16.15;8.98;;;;;;;10.13;90.32;99101.61;1710262;82;21121;-79
2021/11/21 10:53:08;;;;;;;15.45;10.05;;;;;;;10.13;89.65;99106.87;1710378;83;21053;-78
2021/11/21 10:55:36;;;;;;;15.72;9.65;;;;;;;9.98;89.76;99076.08;1709677;83;21058;-78
2021/11/21 10:58:17;;;;;;;14.45;9.53;;;;;;;10.07;90.49;99096.65;1712759;83;21074;-79
2021/11/21 11:01:56;;;;;;;14.93;9.40;;;;;;;10.15;90.53;99091.02;1791398;79;28188;-78
2021/11/21 11:04:22;;;;;;;16.82;9.65;;;;;;;10.19;90.68;99087.27;1762904;79;21543;-79
2021/11/21 11:06:49;;;;;;;16.35;9.78;;;;;;;10.23;89.97;99084.40;1782712;80;21135;-78
2021/11/21 11:09:19;;;;;;;16.40;10.05;;;;;;;10.22;88.78;99089.29;1756167;81;21345;-78
2021/11/21 11:11:51;;;;;;;17.35;9.93;;;;;;;10.18;90.01;99083.80;1755883;81;21048;-78
2021/11/21 11:14:18;;;;;;;15.37;8.83;;;;;;;10.10;89.19;99080.73;1756270;81;20944;-78
2021/11/21 11:16:49;;;;;;;15.78;8.95;;;;;;;10.08;90.54;99090.47;1782349;80;21024;-78
2021/11/21 11:19:17;;;;;;;16.50;9.17;;;;;;;10.08;90.78;99085.22;1782856;80;21131;-79
2021/11/21 11:21:46;;;;;;;14.90;8.70;;;;;;;10.02;91.32;99075.00;1755825;81;21195;-78
2021/11/21 11:24:14;;;;;;;13.32;8.35;;;;;;;9.96;91.83;99081.88;1758815;80;21030;-78
2021/11/21 11:26:40;;;;;;;12.80;7.92;;;;;;;9.88;91.42;99084.91;1771741;80;21568;-78
2021/11/21 11:29:15;;;;;;;15.48;9.15;;;;;;;9.79;93.00;99087.53;1762822;80;20974;-78
2021/11/21 11:31:43;;;;;;;14.38;8.95;;;;;;;9.68;95.26;99085.91;1756197;81;21050;-79
2021/11/21 11:34:10;;;;;;;15.70;10.38;;;;;;;9.52;94.08;99089.75;1765919;80;21197;-78